Time;durP1;ratioP1;P1;durP2;ratioP2;P2;SDS_P1;SDS_P2;PMS_P1;PMS_P2;Temp;Humidity;BMP_temperature;BMP_pressure;BME280_temperature;BME280_humidity;BME280_pressure;Samples;Min_cycle;Max_cycle;Signal;HPM_P1;HPM_P2
2022/06/03 11:25:49;;;;;;;21.90;6.13;;;;;;;-143.84;37.87;44778.69;5289725;23;20481;-73
2022/06/03 11:28:21;;;;;;;20.33;5.03;;;;;;;-143.84;38.21;44784.41;5050818;28;21063;-73
2022/06/03 11:30:52;;;;;;;88.17;38.70;;;;;;;-143.84;38.49;44778.69;5050393;28;20445;-74
2022/06/03 11:33:26;;;;;;;20.17;10.60;;;;;;;-143.84;38.74;44786.31;5050602;28;20895;-74
2022/06/03 11:35:57;;;;;;;35.67;9.67;;;;;;;-143.84;38.97;44807.25;5049596;28;20430;-74
2022/06/03 11:38:30;;;;;;;17.60;7.07;;;;;;;-143.84;39.06;44826.28;5050404;28;20499;-73
2022/06/03 11:41:03;;;;;;;35.67;14.73;;;;;;;-143.84;39.51;44822.47;5050504;28;20511;-74
2022/06/03 11:43:36;;;;;;;17.10;6.00;;;;;;;-143.84;39.12;44807.25;5050380;28;20453;-74
2022/06/03 11:46:53;;;;;;;28.37;10.77;;;;;;;-143.84;39.21;44822.47;5050736;28;21053;-74
2022/06/03 11:49:22;;;;;;;23.47;9.53;;;;;;;-143.84;40.12;44822.47;5050266;28;20922;-73
2022/06/03 11:51:51;;;;;;;25.23;12.10;;;;;;;-143.84;39.69;44833.91;5049794;28;20496;-74
2022/06/03 11:54:21;;;;;;;24.63;9.37;;;;;;;-143.84;39.21;44826.28;5049985;28;20445;-73
2022/06/03 11:56:51;;;;;;;50.17;28.50;;;;;;;-143.84;39.83;44828.19;5049330;28;20430;-73
2022/06/03 11:59:25;;;;;;;48.93;26.80;;;;;;;-143.84;40.49;44828.19;5050004;28;20453;-74
2022/06/03 12:01:59;;;;;;;175.53;85.03;;;;;;;-143.84;40.70;44843.44;5050391;28;20440;-73
2022/06/03 12:04:41;;;;;;;106.17;46.13;;;;;;;-143.84;39.41;44841.53;5050064;28;20450;-73
2022/06/03 12:07:19;;;;;;;47.30;19.30;;;;;;;-143.84;40.12;44797.72;5049900;28;20559;-74
2022/06/03 12:09:56;;;;;;;13.80;5.10;;;;;;;-143.84;40.41;44826.28;5049650;28;20531;-73
2022/06/03 12:15:42;;;;;;;15.60;7.37;;;;;;;-143.84;41.03;44841.53;5050097;28;20412;-73
2022/06/03 12:18:50;;;;;;;13.63;6.73;;;;;;;-143.84;41.19;44807.25;5049757;28;20461;-73
2022/06/03 12:22:03;;;;;;;82.37;38.20;;;;;;;-143.84;41.78;44833.91;5043631;28;20539;-73
2022/06/03 12:24:53;;;;;;;117.43;51.03;;;;;;;-143.84;41.69;44814.88;5049643;28;20496;-74
2022/06/03 12:27:29;;;;;;;63.83;32.13;;;;;;;-143.84;41.95;44847.22;5049668;28;20961;-74
2022/06/03 12:30:31;;;;;;;40.00;11.97;;;;;;;-143.84;42.85;44837.72;5049877;28;20473;-74
2022/06/03 12:33:02;;;;;;;24.40;10.40;;;;;;;-143.84;43.08;44839.63;5049379;28;20440;-74
2022/06/03 12:35:53;;;;;;;15.40;8.67;;;;;;;-143.84;44.11;44864.38;5048720;28;20437;-74
2022/06/03 12:39:12;;;;;;;12.57;5.20;;;;;;;-143.84;42.85;44873.88;5049042;28;20452;-73
2022/06/03 12:42:01;;;;;;;18.10;9.47;;;;;;;-143.84;44.24;44837.72;5049169;28;20466;-74
2022/06/03 12:45:14;;;;;;;96.40;52.43;;;;;;;-143.84;43.98;44862.47;5048808;28;20484;-74
2022/06/03 12:47:49;;;;;;;36.70;15.97;;;;;;;-143.84;43.67;44837.72;5039453;28;21117;-76
2022/06/03 12:50:32;;;;;;;27.63;13.37;;;;;;;-143.84;44.23;44849.13;5048965;28;20873;-74
2022/06/03 12:53:38;;;;;;;26.77;11.07;;;;;;;-143.84;45.18;44862.47;5049386;28;20476;-74
2022/06/03 12:56:20;;;;;;;15.30;5.13;;;;;;;-143.84;45.58;44877.69;5049479;28;20437;-74
2022/06/03 12:59:00;;;;;;;27.23;5.60;;;;;;;-143.84;45.27;44862.47;5049014;28;20922;-74
2022/06/03 13:01:57;;;;;;;20.70;7.80;;;;;;;-143.84;47.22;44898.66;5049071;28;20477;-74
2022/06/03 13:05:15;;;;;;;19.53;4.73;;;;;;;-143.84;46.87;44873.88;5048199;28;20989;-74
2022/06/03 13:08:04;;;;;;;10.17;5.10;;;;;;;-143.84;46.10;44875.78;5048961;28;20454;-74
2022/06/03 13:10:47;;;;;;;18.80;10.90;;;;;;;-143.84;45.24;44858.66;5048741;28;20547;-76
2022/06/03 13:13:43;;;;;;;14.70;6.50;;;;;;;-143.84;46.02;44862.47;5046884;28;20599;-73
2022/06/03 13:16:47;;;;;;;13.73;4.70;;;;;;;-143.84;45.61;44870.09;5048907;28;20498;-74
2022/06/03 13:19:50;;;;;;;11.40;5.37;;;;;;;-143.84;45.80;44906.25;5048982;28;20545;-74
2022/06/03 13:22:29;;;;;;;14.30;4.97;;;;;;;-143.84;46.53;44877.69;5048684;28;20442;-76
2022/06/03 13:25:31;;;;;;;13.30;4.00;;;;;;;-143.84;45.52;44881.50;5048414;28;21010;-76
2022/06/03 13:28:29;;;;;;;20.33;10.80;;;;;;;-143.84;46.63;44896.75;5048814;28;20453;-76
2022/06/03 13:31:12;;;;;;;26.93;8.90;;;;;;;-143.84;46.60;44887.22;5048742;28;20449;-76
2022/06/03 13:34:24;;;;;;;33.33;8.73;;;;;;;-143.84;47.15;44885.31;5048718;28;20503;-77
2022/06/03 13:37:12;;;;;;;10.10;5.90;;;;;;;-143.84;47.09;44896.75;5047941;28;20800;-76
2022/06/03 13:40:15;;;;;;;27.73;6.00;;;;;;;-143.84;47.02;44881.50;5039790;28;20450;-76
2022/06/03 13:43:02;;;;;;;14.17;4.80;;;;;;;-143.84;47.24;44891.03;5048225;28;20507;-77
2022/06/03 13:45:48;;;;;;;15.67;5.00;;;;;;;-143.84;46.93;44904.34;5048728;28;20449;-73
2022/06/03 13:48:33;;;;;;;28.73;5.97;;;;;;;-143.84;47.65;44906.25;5048772;28;20770;-74
2022/06/03 13:51:27;;;;;;;14.67;4.63;;;;;;;-143.84;48.85;44887.22;5048248;28;20429;-74
2022/06/03 13:53:59;;;;;;;7.53;4.70;;;;;;;-143.84;47.54;44900.53;5048333;28;21017;-76
2022/06/03 13:56:30;;;;;;;11.53;5.17;;;;;;;-143.84;47.55;44879.59;5048461;28;20499;-77
2022/06/03 13:58:59;;;;;;;13.17;4.43;;;;;;;-143.84;46.78;44870.09;5048426;28;20434;-74
2022/06/03 14:01:30;;;;;;;16.53;4.10;;;;;;;-143.84;46.37;44906.25;5048602;28;20801;-74
2022/06/03 14:04:02;;;;;;;20.57;5.77;;;;;;;-143.84;45.92;44875.78;5048157;28;20441;-74
2022/06/03 14:06:35;;;;;;;19.70;4.83;;;;;;;-143.84;45.95;44898.66;5048045;28;20429;-74
2022/06/03 14:09:08;;;;;;;11.10;3.97;;;;;;;-143.84;45.07;44904.34;5048272;28;21016;-74
2022/06/03 14:11:40;;;;;;;29.53;4.23;;;;;;;-143.84;45.12;44904.34;5047620;28;20446;-74
2022/06/03 14:14:14;;;;;;;17.33;5.03;;;;;;;-143.84;44.82;44875.78;5047563;28;21078;-76
2022/06/03 14:16:47;;;;;;;18.30;4.70;;;;;;;-143.84;42.76;44913.88;5039559;28;20809;-75
2022/06/03 14:19:47;;;;;;;25.03;4.53;;;;;;;-143.84;42.87;44894.84;5028206;28;20504;-74
2022/06/03 14:22:23;;;;;;;15.70;4.30;;;;;;;-143.84;42.39;44889.13;5031112;28;20458;-77
2022/06/03 14:25:03;;;;;;;6.30;4.20;;;;;;;-143.84;43.21;44891.03;5031915;28;20493;-77
2022/06/03 14:27:36;;;;;;;12.63;3.67;;;;;;;-143.84;43.54;44889.13;5036879;28;20455;-77
2022/06/03 14:30:11;;;;;;;12.13;4.00;;;;;;;-143.84;45.24;44875.78;5033775;28;20540;-74
2022/06/03 14:32:45;;;;;;;9.90;3.93;;;;;;;-143.84;45.70;44887.22;5012105;28;20443;-74
2022/06/03 14:35:19;;;;;;;8.73;4.20;;;;;;;-143.84;45.93;44915.78;5011954;28;20443;-74
2022/06/03 14:37:49;;;;;;;10.33;4.63;;;;;;;-143.84;45.90;44891.03;5012022;28;20471;-77
2022/06/03 14:40:23;;;;;;;12.90;4.83;;;;;;;-143.84;46.38;44879.59;5028385;28;20458;-74
2022/06/03 14:42:52;;;;;;;19.67;4.97;;;;;;;-143.84;46.96;44904.34;5044116;28;20462;-74
2022/06/03 14:45:21;;;;;;;9.87;4.27;;;;;;;-143.84;46.69;44866.28;5045163;28;21383;-76
2022/06/03 14:47:52;;;;;;;14.13;4.93;;;;;;;-143.84;47.12;44894.84;5042434;28;20457;-76
2022/06/03 14:50:23;;;;;;;7.83;4.30;;;;;;;-143.84;46.64;44923.41;5039949;28;20843;-76
2022/06/03 14:52:55;;;;;;;14.73;5.13;;;;;;;-143.84;47.03;44896.75;5049619;28;20515;-77
2022/06/03 14:55:28;;;;;;;12.63;4.60;;;;;;;-143.84;47.32;44904.34;5036960;28;20492;-77
2022/06/03 14:58:01;;;;;;;15.00;5.07;;;;;;;-143.84;48.11;44896.75;5037283;28;20458;-76
2022/06/03 15:00:49;;;;;;;6.57;4.17;;;;;;;-143.84;48.04;44892.94;5032423;28;20462;-76
2022/06/03 15:03:22;;;;;;;10.30;4.33;;;;;;;-143.84;48.97;44904.34;5040671;28;20467;-73
2022/06/03 15:05:53;;;;;;;9.67;4.47;;;;;;;-143.84;49.68;44921.50;5039237;28;20475;-76
2022/06/03 15:08:25;;;;;;;14.93;5.20;;;;;;;-143.84;49.92;44904.34;5045094;28;20452;-74
2022/06/03 15:11:05;;;;;;;24.60;5.00;;;;;;;-143.84;49.99;44917.69;5038106;28;20478;-73
2022/06/03 15:13:33;;;;;;;6.43;4.00;;;;;;;-143.84;49.46;44911.97;5039081;28;20465;-74
2022/06/03 15:16:04;;;;;;;16.23;4.20;;;;;;;-143.84;50.46;44906.25;5036953;28;20450;-74
2022/06/03 15:18:32;;;;;;;9.17;4.60;;;;;;;-143.84;50.14;44927.19;5034783;28;20442;-74
2022/06/03 15:21:06;;;;;;;19.50;4.57;;;;;;;-143.84;50.94;44923.41;5033832;28;20447;-77
2022/06/03 15:23:35;;;;;;;16.47;4.77;;;;;;;-143.84;50.68;44946.25;5038320;28;20469;-76
2022/06/03 15:26:07;;;;;;;17.70;4.47;;;;;;;-143.84;51.26;44904.34;5037958;28;20497;-74
2022/06/03 15:28:35;;;;;;;15.97;4.43;;;;;;;-143.84;51.80;44911.97;5042101;28;20482;-75
2022/06/03 15:31:06;;;;;;;12.97;3.80;;;;;;;-143.84;52.22;44927.19;5036600;28;20485;-76
2022/06/03 15:33:37;;;;;;;10.67;3.77;;;;;;;-143.84;52.28;44938.63;5035468;28;20456;-74
2022/06/03 15:36:10;;;;;;;10.50;4.80;;;;;;;-143.84;52.51;44910.06;5041633;28;20836;-70
2022/06/03 15:38:40;;;;;;;14.87;5.50;;;;;;;-143.84;52.88;44917.69;5041697;28;20567;-70
2022/06/03 15:41:12;;;;;;;9.07;4.40;;;;;;;-143.84;53.37;44942.44;5043508;28;20449;-70
2022/06/03 15:43:43;;;;;;;9.67;4.17;;;;;;;-143.84;53.73;44938.63;5037519;28;20466;-72
2022/06/03 15:46:28;;;;;;;13.73;3.93;;;;;;;-143.84;54.08;44942.44;5038344;28;20549;-70
2022/06/03 15:48:57;;;;;;;10.90;4.43;;;;;;;-143.84;54.30;44921.50;5036827;28;20455;-71
2022/06/03 15:51:24;;;;;;;19.43;4.97;;;;;;;-143.84;54.51;44938.63;5040766;28;20492;-70
2022/06/03 15:53:53;;;;;;;19.27;4.87;;;;;;;-143.84;55.44;44932.91;5036449;28;20442;-70
2022/06/03 15:56:34;;;;;;;7.67;3.80;;;;;;;-143.84;55.37;44931.00;5042303;28;20869;-71
2022/06/03 15:59:12;;;;;;;20.53;4.67;;;;;;;-143.84;56.22;44969.09;5047674;28;20457;-73
2022/06/03 16:01:50;;;;;;;4.50;3.90;;;;;;;-143.84;56.24;44953.88;5037747;28;20512;-74
2022/06/03 16:04:36;;;;;;;20.37;4.57;;;;;;;-143.84;56.37;44942.44;5035224;28;20508;-71
2022/06/03 16:07:16;;;;;;;9.40;4.00;;;;;;;-143.84;57.03;44946.25;5038223;28;20453;-70
2022/06/03 16:09:52;;;;;;;10.83;3.70;;;;;;;-143.84;57.19;44946.25;5043329;28;20564;-70
2022/06/03 16:12:24;;;;;;;9.20;4.33;;;;;;;-143.84;57.19;44957.66;5037297;28;20508;-71
2022/06/03 16:15:10;;;;;;;11.93;4.47;;;;;;;-143.84;57.53;44965.28;5030515;28;20451;-70
2022/06/03 16:17:58;;;;;;;15.70;4.13;;;;;;;-143.84;58.12;44942.44;5034906;28;20862;-70
2022/06/03 16:20:40;;;;;;;13.03;4.50;;;;;;;-143.84;58.22;44919.59;5037528;28;20455;-72
2022/06/03 16:23:30;;;;;;;9.33;4.77;;;;;;;-143.84;57.85;44931.00;5035392;28;20507;-70
2022/06/03 16:26:04;;;;;;;19.97;4.40;;;;;;;-143.84;58.31;44944.34;5031430;28;20474;-70
2022/06/03 16:28:55;;;;;;;10.10;4.00;;;;;;;-143.84;58.19;44940.53;5037971;28;20471;-72
2022/06/03 16:31:31;;;;;;;15.73;5.07;;;;;;;-143.84;58.77;44940.53;5036420;28;20886;-72
2022/06/03 16:34:06;;;;;;;7.97;3.57;;;;;;;-143.84;58.11;44946.25;5044348;28;20853;-72
2022/06/03 16:36:42;;;;;;;11.53;4.80;;;;;;;-143.84;58.76;44942.44;5043746;28;20446;-72
2022/06/03 16:39:15;;;;;;;19.40;5.13;;;;;;;-143.84;59.25;44946.25;5040031;28;20449;-72
2022/06/03 16:41:48;;;;;;;17.27;4.20;;;;;;;-143.84;58.79;44950.06;5034021;28;20451;-71
2022/06/03 16:44:28;;;;;;;6.37;5.00;;;;;;;-143.84;59.07;44971.00;5040480;28;20458;-71
2022/06/03 16:47:05;;;;;;;9.30;4.67;;;;;;;-143.84;58.76;44961.47;5034697;28;20585;-71
2022/06/03 16:49:47;;;;;;;10.40;4.73;;;;;;;-143.84;59.58;44932.91;5039378;28;20501;-71
2022/06/03 16:52:28;;;;;;;5.80;4.43;;;;;;;-143.84;59.19;44953.88;5036546;28;20450;-71
2022/06/03 16:55:01;;;;;;;8.43;4.40;;;;;;;-143.84;59.23;44959.56;5033896;28;20446;-71
2022/06/03 16:57:30;;;;;;;8.03;4.40;;;;;;;-143.84;59.27;44986.22;5041505;28;20528;-72
2022/06/03 17:00:17;;;;;;;8.03;5.17;;;;;;;-143.84;59.21;44957.66;5034602;28;20478;-72
2022/06/03 17:02:48;;;;;;;11.97;4.87;;;;;;;-143.84;58.79;44946.25;5036441;28;20795;-73
2022/06/03 17:05:18;;;;;;;12.37;4.00;;;;;;;-143.84;58.79;44944.34;5036625;28;20453;-73
2022/06/03 17:07:49;;;;;;;10.00;4.70;;;;;;;-143.84;59.08;44976.72;5036201;28;20974;-73
2022/06/03 17:10:19;;;;;;;12.70;4.30;;;;;;;-143.84;59.67;44969.09;5036758;28;21343;-73
2022/06/03 17:12:49;;;;;;;14.10;4.80;;;;;;;-143.84;59.65;44942.44;5035722;28;20462;-73
2022/06/03 17:15:20;;;;;;;12.50;4.93;;;;;;;-143.84;59.85;44967.19;5035586;28;20458;-72
2022/06/03 17:17:49;;;;;;;6.77;4.80;;;;;;;-143.84;60.17;44974.81;5038430;28;20977;-72
2022/06/03 17:20:40;;;;;;;8.83;4.97;;;;;;;-143.84;60.41;44961.47;5041097;28;20478;-73
2022/06/03 17:23:28;;;;;;;5.83;4.50;;;;;;;-143.84;60.12;44978.63;5043508;28;20449;-73
2022/06/03 17:25:59;;;;;;;10.17;4.60;;;;;;;-143.84;60.39;44957.66;5022304;28;20577;-73
2022/06/03 17:28:46;;;;;;;17.80;4.67;;;;;;;-143.84;60.20;44972.91;5029802;28;21113;-72
2022/06/03 17:31:21;;;;;;;14.77;4.97;;;;;;;-143.84;59.98;44969.09;5025647;28;20553;-72
2022/06/03 17:34:30;;;;;;;16.10;4.13;;;;;;;-143.84;59.18;44948.16;5027929;28;20504;-73
2022/06/03 17:37:02;;;;;;;4.77;3.80;;;;;;;-143.84;58.15;44959.56;5030902;28;20470;-71
2022/06/03 17:39:45;;;;;;;5.60;3.90;;;;;;;-143.84;57.48;44961.47;5027246;28;20450;-70
2022/06/03 17:42:24;;;;;;;4.60;4.17;;;;;;;-143.84;56.90;44984.31;5027216;28;21042;-72
2022/06/03 17:45:12;;;;;;;6.43;3.83;;;;;;;-143.84;57.31;44963.38;5030163;28;20956;-72
2022/06/03 17:47:50;;;;;;;9.17;3.90;;;;;;;-143.84;57.29;44984.31;5031183;28;20454;-72
2022/06/03 17:50:24;;;;;;;4.20;3.80;;;;;;;-143.84;57.44;44957.66;5027916;28;20565;-71
2022/06/03 17:56:06;;;;;;;7.83;4.20;;;;;;;-143.84;57.61;44976.72;5032429;28;20461;-72
2022/06/03 17:59:10;;;;;;;9.20;4.27;;;;;;;-143.84;58.14;44976.72;5042525;28;20447;-72
2022/06/03 18:01:51;;;;;;;8.70;3.60;;;;;;;-143.84;57.99;44963.38;5031713;28;20488;-73
2022/06/03 18:04:33;;;;;;;6.27;4.00;;;;;;;-143.84;57.79;44961.47;5032259;28;20438;-73
2022/06/03 18:07:10;;;;;;;10.90;4.77;;;;;;;-143.84;57.33;44967.19;5031552;28;20438;-73
2022/06/03 18:09:50;;;;;;;5.57;4.00;;;;;;;-143.84;57.81;44965.28;5031938;28;20450;-72
2022/06/03 18:12:19;;;;;;;4.73;3.70;;;;;;;-143.84;57.56;44976.72;5031904;28;20829;-73
2022/06/03 18:14:58;;;;;;;6.37;3.63;;;;;;;-143.84;57.50;44955.75;5031784;28;20435;-73
2022/06/03 18:17:31;;;;;;;11.63;3.80;;;;;;;-143.84;57.48;44972.91;5032558;28;20434;-72
2022/06/03 18:20:13;;;;;;;13.40;3.83;;;;;;;-143.84;57.50;44984.31;5032227;28;20489;-73
2022/06/03 18:23:04;;;;;;;10.23;4.10;;;;;;;-143.84;57.85;44950.06;5031426;28;20435;-73
2022/06/03 18:25:47;;;;;;;14.73;4.67;;;;;;;-143.84;58.01;44965.28;5031838;28;20536;-73
2022/06/03 18:28:51;;;;;;;11.70;2.90;;;;;;;-143.84;58.20;44969.09;5012205;28;20903;-74
2022/06/03 18:31:37;;;;;;;4.30;3.90;;;;;;;-143.84;58.59;44972.91;5015669;28;20470;-72
2022/06/03 18:34:20;;;;;;;6.30;4.10;;;;;;;-143.84;58.48;44995.75;5012306;28;20841;-72
2022/06/03 18:37:00;;;;;;;14.97;5.27;;;;;;;-143.84;61.00;45001.47;5028046;28;20457;-73
2022/06/03 18:39:41;;;;;;;11.33;4.10;;;;;;;-143.84;59.77;44995.75;5030628;28;20971;-72
2022/06/03 18:45:20;;;;;;;28.87;4.70;;;;;;;-143.84;60.36;44986.22;5031227;28;20480;-72
2022/06/03 18:48:00;;;;;;;8.40;3.50;;;;;;;-143.84;59.75;44971.00;5030152;28;20442;-72
2022/06/03 18:50:35;;;;;;;7.43;3.73;;;;;;;-143.84;58.77;45009.09;5030464;28;20473;-73
2022/06/03 18:53:27;;;;;;;10.27;4.77;;;;;;;-143.84;59.78;45009.09;5030401;28;20462;-70
2022/06/03 18:56:09;;;;;;;10.43;4.43;;;;;;;-143.84;60.04;44990.03;5029944;28;20556;-73
2022/06/03 18:58:48;;;;;;;5.43;4.07;;;;;;;-143.84;59.27;44976.72;5029742;28;20431;-72
2022/06/03 19:01:23;;;;;;;4.23;3.80;;;;;;;-143.84;59.26;44990.03;5029498;28;20442;-72
2022/06/03 19:04:07;;;;;;;4.67;3.40;;;;;;;-143.84;59.33;44974.81;5029142;28;20449;-72
2022/06/03 19:06:51;;;;;;;11.67;4.30;;;;;;;-143.84;59.67;44984.31;5030336;28;20443;-73
2022/06/03 19:09:39;;;;;;;14.37;4.00;;;;;;;-143.84;59.00;44990.03;5033098;28;21058;-72
2022/06/03 19:12:20;;;;;;;9.77;4.10;;;;;;;-143.84;59.35;44984.31;5031184;28;20569;-73
2022/06/03 19:15:05;;;;;;;6.27;3.90;;;;;;;-143.84;59.59;44967.19;5030867;28;20434;-74
2022/06/03 19:17:55;;;;;;;6.30;3.93;;;;;;;-143.84;59.96;44972.91;5031189;28;20870;-73
2022/06/03 19:20:34;;;;;;;26.73;4.40;;;;;;;-143.84;59.84;44984.31;5030592;28;20434;-75
2022/06/03 19:23:32;;;;;;;4.80;3.73;;;;;;;-143.84;60.21;44972.91;5030795;28;20434;-74
2022/06/03 19:26:00;;;;;;;3.93;3.63;;;;;;;-143.84;60.04;44974.81;5033012;28;20494;-73
2022/06/03 19:28:34;;;;;;;5.40;3.37;;;;;;;-143.84;60.13;44963.38;5051089;28;20854;-74
2022/06/03 19:31:06;;;;;;;4.13;3.30;;;;;;;-143.84;59.98;44982.41;5050628;28;21355;-73
2022/06/03 19:33:34;;;;;;;7.57;3.33;;;;;;;-143.84;60.32;44982.41;5050548;28;20434;-73
2022/06/03 19:36:18;;;;;;;7.20;4.27;;;;;;;-143.84;60.35;44995.75;5047152;28;20433;-73
2022/06/03 19:39:03;;;;;;;5.17;3.83;;;;;;;-143.84;60.01;44978.63;5024377;28;20438;-72
2022/06/03 19:41:45;;;;;;;9.20;4.00;;;;;;;-143.84;60.46;45005.28;5011365;28;20436;-71
2022/06/03 19:44:38;;;;;;;5.47;4.07;;;;;;;-143.84;60.74;44965.28;5010855;28;20448;-72
2022/06/03 19:47:21;;;;;;;10.53;4.20;;;;;;;-143.84;60.55;44974.81;5023546;28;20931;-70
2022/06/03 19:50:01;;;;;;;4.37;3.87;;;;;;;-143.84;60.55;44984.31;5028993;28;20801;-71
2022/06/03 19:52:31;;;;;;;10.00;3.67;;;;;;;-143.84;60.63;45010.97;5030157;28;20482;-71
2022/06/03 19:55:11;;;;;;;8.80;4.10;;;;;;;-143.84;60.44;44972.91;5030481;28;20426;-71
2022/06/03 19:57:46;;;;;;;8.60;3.77;;;;;;;-143.84;60.52;44978.63;5030064;28;20496;-70
2022/06/03 20:00:22;;;;;;;4.30;3.90;;;;;;;-143.84;60.65;44990.03;5030618;28;20434;-71
2022/06/03 20:03:06;;;;;;;7.80;4.43;;;;;;;-143.84;60.88;44990.03;5030098;28;20856;-70
2022/06/03 20:05:46;;;;;;;8.67;4.40;;;;;;;-143.84;60.84;44980.53;5029453;28;20488;-70
2022/06/03 20:08:20;;;;;;;5.97;4.00;;;;;;;-143.84;60.95;44955.75;5029753;28;20434;-70
2022/06/03 20:13:22;;;;;;;5.17;3.50;;;;;;;-143.84;60.79;44967.19;5030270;28;20441;-71
2022/06/03 20:14:00;;;;;;;7.03;3.80;;;;;;;-143.84;61.03;44980.53;5029935;28;20924;-70
2022/06/03 20:16:28;;;;;;;5.03;3.70;;;;;;;-143.84;61.13;44980.53;5030221;28;21253;-70
2022/06/03 20:18:57;;;;;;;4.17;3.80;;;;;;;-143.84;61.32;44997.66;5029033;28;20819;-72
2022/06/03 20:21:34;;;;;;;11.13;4.33;;;;;;;-143.84;61.00;44976.72;5029648;28;20944;-72
2022/06/03 20:24:21;;;;;;;10.07;4.00;;;;;;;-143.84;61.24;44990.03;5029743;28;20537;-73
2022/06/03 20:26:58;;;;;;;5.57;4.30;;;;;;;-143.84;61.22;44995.75;5029568;28;20443;-73
2022/06/03 20:29:36;;;;;;;4.23;3.60;;;;;;;-143.84;61.29;45007.19;5029811;28;20838;-72
2022/06/03 20:32:11;;;;;;;6.57;3.60;;;;;;;-143.84;61.41;44995.75;5029661;28;20482;-72
2022/06/03 20:34:51;;;;;;;8.10;2.97;;;;;;;-143.84;61.13;44978.63;5029593;28;20840;-72
2022/06/03 20:37:34;;;;;;;6.63;4.10;;;;;;;-143.84;61.52;44997.66;5029308;28;20450;-72
2022/06/03 20:40:08;;;;;;;6.47;3.93;;;;;;;-143.84;61.74;44995.75;5029521;28;20469;-72
2022/06/03 20:42:40;;;;;;;7.87;3.90;;;;;;;-143.84;61.61;45003.38;5029726;28;20447;-72
2022/06/03 20:45:37;;;;;;;10.00;5.00;;;;;;;-143.84;61.75;44997.66;5029559;28;20438;-72
2022/06/03 20:48:16;;;;;;;7.43;4.20;;;;;;;-143.84;61.58;44988.13;5029631;28;20458;-72
2022/06/03 20:50:56;;;;;;;10.47;4.53;;;;;;;-143.84;61.69;44971.00;5029126;28;20951;-72
2022/06/03 20:53:25;;;;;;;16.17;3.80;;;;;;;-143.84;61.73;44967.19;5029490;28;20462;-72
2022/06/03 20:56:04;;;;;;;6.97;3.70;;;;;;;-143.84;61.56;45001.47;5029382;28;20815;-72
2022/06/03 20:58:33;;;;;;;11.83;4.40;;;;;;;-143.84;61.80;44967.19;5029085;28;20446;-72
2022/06/03 21:01:06;;;;;;;10.67;4.47;;;;;;;-143.84;61.72;45031.94;5029036;28;20434;-72
2022/06/03 21:14:34;;;;;;;6.53;4.20;;;;;;;-143.84;62.41;44995.75;5029321;28;20453;-72
2022/06/03 21:17:03;;;;;;;8.47;3.63;;;;;;;-143.84;62.42;45003.38;5029111;28;20500;-72
2022/06/03 21:19:31;;;;;;;8.90;3.80;;;;;;;-143.84;62.56;44997.66;5028742;28;20983;-72
2022/06/03 21:22:13;;;;;;;16.20;4.20;;;;;;;-143.84;62.99;44982.41;5028926;28;20446;-72
2022/06/03 21:24:51;;;;;;;4.90;3.93;;;;;;;-143.84;62.90;44982.41;5028690;28;20482;-72
2022/06/03 21:27:19;;;;;;;12.70;4.80;;;;;;;-143.84;63.05;44974.81;5039123;28;20448;-72
2022/06/03 21:29:46;;;;;;;5.70;4.07;;;;;;;-143.84;63.25;44990.03;5048697;28;20438;-72
2022/06/03 21:32:30;;;;;;;4.90;3.43;;;;;;;-143.84;63.51;45018.59;5048579;28;20481;-73
2022/06/03 21:35:09;;;;;;;8.73;3.30;;;;;;;-143.84;63.45;44978.63;5048753;28;20449;-72
2022/06/03 21:37:46;;;;;;;5.30;3.93;;;;;;;-143.84;63.45;45012.88;5048573;28;20448;-72
2022/06/03 21:40:17;;;;;;;6.80;4.03;;;;;;;-143.84;63.57;45014.78;5048836;28;20856;-72
2022/06/03 21:42:50;;;;;;;9.10;4.97;;;;;;;-143.84;63.73;45009.09;5048422;28;20852;-72
2022/06/03 21:45:23;;;;;;;5.63;3.80;;;;;;;-143.84;63.93;45007.19;5048449;28;20446;-72
2022/06/03 21:48:02;;;;;;;6.10;4.20;;;;;;;-143.84;63.95;44990.03;5048771;28;20489;-72
2022/06/03 21:50:42;;;;;;;5.10;4.20;;;;;;;-143.84;64.00;45007.19;5048448;28;20793;-72
2022/06/03 21:53:28;;;;;;;6.73;4.03;;;;;;;-143.84;63.95;45001.47;5048315;28;20576;-72
2022/06/03 21:56:14;;;;;;;12.50;4.27;;;;;;;-143.84;63.84;45001.47;5048585;28;20488;-72
2022/06/03 21:59:04;;;;;;;4.97;3.50;;;;;;;-143.84;64.37;45003.38;5048347;28;20445;-72
2022/06/03 22:01:34;;;;;;;7.50;3.90;;;;;;;-143.84;64.33;45018.59;5048451;28;20449;-72
2022/06/03 22:04:04;;;;;;;8.17;4.10;;;;;;;-143.84;64.44;44991.94;5048301;28;20947;-73
2022/06/03 22:06:34;;;;;;;6.60;3.93;;;;;;;-143.84;64.45;44978.63;5048435;28;20790;-72
2022/06/03 22:09:02;;;;;;;8.03;4.33;;;;;;;-143.84;64.25;45012.88;5048403;28;20445;-72
2022/06/03 22:14:13;;;;;;;10.63;4.07;;;;;;;-143.84;64.37;44969.09;5048366;28;20420;-72
2022/06/03 22:16:40;;;;;;;7.73;3.93;;;;;;;-143.84;64.32;45012.88;5048250;28;21037;-72
2022/06/03 22:19:09;;;;;;;7.30;4.23;;;;;;;-143.84;64.23;45005.28;5048004;28;20433;-72
2022/06/03 22:21:36;;;;;;;3.83;3.53;;;;;;;-143.84;64.31;44995.75;5048211;28;20460;-72
2022/06/03 22:24:03;;;;;;;4.60;4.07;;;;;;;-143.84;64.28;44990.03;5047955;28;20453;-73
2022/06/03 22:26:40;;;;;;;7.43;4.63;;;;;;;-143.84;64.62;45001.47;5048087;28;20452;-72
2022/06/03 22:29:14;;;;;;;9.00;4.00;;;;;;;-143.84;64.63;44969.09;5048621;28;20460;-72
2022/06/03 22:31:52;;;;;;;13.27;4.10;;;;;;;-143.84;64.89;44997.66;5047976;28;20472;-72
2022/06/03 22:34:36;;;;;;;9.20;4.27;;;;;;;-143.84;65.29;45005.28;5048086;28;20552;-72
2022/06/03 22:40:09;;;;;;;6.43;3.87;;;;;;;-143.84;65.34;44978.63;5048292;28;20425;-73
2022/06/03 22:42:50;;;;;;;8.97;4.13;;;;;;;-143.84;65.72;45022.41;5051799;28;20449;-72
2022/06/03 22:45:17;;;;;;;4.50;4.10;;;;;;;-143.84;65.80;45010.97;5051633;28;20448;-72
2022/06/03 22:47:44;;;;;;;10.10;4.93;;;;;;;-143.84;65.80;45007.19;5051623;28;20966;-72
2022/06/03 22:50:12;;;;;;;9.47;4.23;;;;;;;-143.84;65.96;45005.28;5051544;28;20452;-72
2022/06/03 22:52:40;;;;;;;12.47;4.87;;;;;;;-143.84;65.88;44995.75;5051364;28;20489;-72
2022/06/03 22:55:08;;;;;;;6.03;4.43;;;;;;;-143.84;66.22;45001.47;5051342;28;20434;-72
2022/06/03 22:57:35;;;;;;;7.03;3.90;;;;;;;-143.84;66.31;44995.75;5051346;28;20429;-72
2022/06/03 23:00:04;;;;;;;7.13;4.00;;;;;;;-143.84;66.58;45010.97;5051231;28;20503;-72
2022/06/03 23:02:32;;;;;;;5.63;4.70;;;;;;;-143.84;66.77;45003.38;5050369;28;20442;-72
2022/06/03 23:05:00;;;;;;;7.70;5.10;;;;;;;-143.84;66.90;45007.19;5050532;28;20441;-72
2022/06/03 23:07:33;;;;;;;5.80;4.27;;;;;;;-143.84;67.05;45018.59;5050927;28;20438;-72
2022/06/03 23:10:00;;;;;;;8.97;4.70;;;;;;;-143.84;67.11;45005.28;5050381;28;20507;-72
2022/06/03 23:12:28;;;;;;;7.07;4.03;;;;;;;-143.84;67.55;44990.03;5050747;28;21048;-72
2022/06/03 23:14:58;;;;;;;6.13;4.00;;;;;;;-143.84;67.78;44982.41;5051169;28;20434;-72
2022/06/03 23:17:25;;;;;;;4.77;4.00;;;;;;;-143.84;67.84;44974.81;5051380;28;21401;-72
2022/06/03 23:19:52;;;;;;;7.70;4.90;;;;;;;-143.84;68.02;44990.03;5051352;28;20955;-72
2022/06/03 23:22:22;;;;;;;14.50;4.60;;;;;;;-143.84;68.49;45024.31;5051170;28;20479;-72
2022/06/03 23:24:51;;;;;;;5.73;4.37;;;;;;;-143.84;68.51;45001.47;5050537;28;21018;-72
2022/06/03 23:27:18;;;;;;;5.30;4.33;;;;;;;-143.84;68.61;45003.38;5050691;28;20955;-72
2022/06/03 23:29:45;;;;;;;5.27;4.00;;;;;;;-143.84;68.96;45007.19;5050562;28;20437;-72
2022/06/03 23:32:13;;;;;;;6.50;4.03;;;;;;;-143.84;69.09;45016.69;5050786;28;20485;-72
2022/06/03 23:34:40;;;;;;;12.50;4.10;;;;;;;-143.84;69.28;45003.38;5050711;28;20453;-72
2022/06/03 23:37:08;;;;;;;7.07;5.13;;;;;;;-143.84;69.37;44990.03;5050619;28;20441;-76
2022/06/03 23:39:35;;;;;;;7.20;4.90;;;;;;;-143.84;69.59;44993.84;5050557;28;20444;-75
2022/06/03 23:47:34;;;;;;;6.90;4.30;;;;;;;-143.84;70.51;45001.47;5050228;28;20428;-75
2022/06/03 23:50:01;;;;;;;14.43;4.67;;;;;;;-143.84;70.83;45014.78;5050502;28;20434;-75
2022/06/03 23:52:29;;;;;;;5.00;4.50;;;;;;;-143.84;71.42;45007.19;5049236;28;20531;-75
2022/06/03 23:54:56;;;;;;;9.40;4.47;;;;;;;-143.84;71.63;44999.56;5050440;28;20788;-75
2022/06/03 23:57:24;;;;;;;13.73;5.30;;;;;;;-143.84;71.97;44988.13;5050316;28;20503;-75